Theologos P . — SZNB — position and weather

sailwx.info

Track history (hours):
 
Tides and Currents Weather Stations Pressure Air Temp Water Temp Dewpoint Dewpoint Depression Visibility Wind Speed Wind Dir Waves Ship Positions

Theologos P .

Last reported at 2017-Dec-16 22:30 UTC. Time now 2017-Dec-16 22:37 UTC.
Position N 37°28' E 025°20'.

Length 118 m; draft 5 m.

Type: Passenger vessel. MMSI: 240521000.

Date/timePositionNaut miles runAvg speedWind from/ knotsBaromVisibWave heightAir tempDewpointWater temp
2017-Dec-16 22:30N 37°28' E 025°20'0 0.0
2017-Dec-16 22:00N 37°28' E 025°20'0 0.0
2017-Dec-16 21:30N 37°28' E 025°20'0 0.0
2017-Dec-16 21:00N 37°28' E 025°20'1 1.2
2017-Dec-16 20:30N 37°28' E 025°19'917.5
2017-Dec-16 20:01N 37°32' E 025°09'3 5.0
2017-Dec-16 19:30N 37°33' E 025°06'917.7
2017-Dec-16 19:00N 37°38' E 024°57'917.8
2017-Dec-16 18:30N 37°44' E 024°49'816.9
2017-Dec-16 18:00N 37°51' E 024°44'2 4.4
2017-Dec-16 17:30N 37°52' E 024°41'918.2
2017-Dec-16 17:00N 37°54' E 024°30'918.2
2017-Dec-16 16:30N 37°57' E 024°19'918.2
2017-Dec-16 16:00N 37°60' E 024°08'611.6
2017-Dec-16 15:30N 38°01' E 024°01'0 0.1
2017-Dec-16 15:00N 38°01' E 024°01'815.9
2017-Dec-16 14:29N 37°57' E 024°10'818.0
2017-Dec-16 14:00N 37°55' E 024°20'918.3
2017-Dec-16 13:30N 37°53' E 024°32'918.2
2017-Dec-16 13:00N 37°52' E 024°43'3 6.6
2017-Dec-16 12:30N 37°49' E 024°45'1419.0
2017-Dec-16 11:46N 37°39' E 024°58'518.9
2017-Dec-16 11:30N 37°36' E 025°02'713.9
2017-Dec-16 11:00N 37°32' E 025°10'2 3.1
2017-Dec-16 10:30N 37°31' E 025°10'816.0
2017-Dec-16 10:00N 37°28' E 025°20'0 0.1
2017-Dec-16 09:30N 37°28' E 025°20'0 0.0
2017-Dec-16 09:00N 37°28' E 025°20'0 0.0
2017-Dec-16 08:30N 37°28' E 025°20'0 0.0
2017-Dec-16 08:00N 37°28' E 025°20'0 0.0
2017-Dec-16 07:30N 37°28' E 025°20'0 0.0
2017-Dec-16 07:00N 37°28' E 025°20'0 0.0
2017-Dec-16 06:30N 37°28' E 025°20'0 0.0
2017-Dec-16 06:00N 37°28' E 025°20'0 0.0
2017-Dec-16 05:30N 37°28' E 025°20'0 0.0
2017-Dec-16 05:00N 37°28' E 025°20'0 0.0
2017-Dec-16 04:30N 37°28' E 025°20'0 0.0
2017-Dec-16 04:00N 37°28' E 025°20'0 0.0
2017-Dec-16 03:30N 37°28' E 025°20'0 0.0
2017-Dec-16 03:00N 37°28' E 025°20'0 0.0
2017-Dec-16 02:30N 37°28' E 025°20'0 0.0
2017-Dec-16 02:00N 37°28' E 025°20'0 0.0
2017-Dec-16 01:30N 37°28' E 025°20'0 0.0
2017-Dec-16 01:00N 37°28' E 025°20'0 0.0
2017-Dec-16 00:30N 37°28' E 025°20'0 0.0
2017-Dec-16 00:00N 37°28' E 025°20'0 0.0
2017-Dec-15 23:30N 37°28' E 025°20'0 0.0
2017-Dec-15 23:00N 37°28' E 025°20'0 0.0
2017-Dec-15 22:30N 37°28' E 025°20'0 0.0
2017-Dec-15 22:00N 37°28' E 025°20'0 0.0
2017-Dec-15 21:30N 37°28' E 025°20'0 0.0
2017-Dec-15 21:00N 37°28' E 025°20'0 0.5
2017-Dec-15 20:30N 37°28' E 025°19'917.8
2017-Dec-15 20:01N 37°32' E 025°09'2 3.4
2017-Dec-15 19:30N 37°33' E 025°07'918.0
2017-Dec-15 19:00N 37°38' E 024°58'917.9
2017-Dec-15 18:30N 37°44' E 024°51'1017.3
2017-Dec-15 17:57N 37°53' E 024°44'1 2.4
2017-Dec-15 17:30N 37°52' E 024°43'918.3
2017-Dec-15 17:00N 37°54' E 024°32'918.5
2017-Dec-15 16:31N 37°56' E 024°20'1118.6
2017-Dec-15 15:57N 37°59' E 024°08'612.9
2017-Dec-15 15:30N 38°01' E 024°01'0 0.0
2017-Dec-15 15:00N 38°01' E 024°01'0 0.0
2017-Dec-15 12:47N 38°01' E 024°01'0 0.0
2017-Dec-15 12:17N 38°01' E 024°01'0 0.0
2017-Dec-15 10:35N 38°01' E 024°01'0 1.3
2017-Dec-15 10:30N 38°01' E 024°01'917.6
2017-Dec-15 10:00N 37°59' E 024°11'918.7
2017-Dec-15 09:30N 37°56' E 024°22'1018.7
2017-Dec-15 08:59N 37°54' E 024°34'1010.1
2017-Dec-15 08:00N 37°49' E 024°46'1519.1
2017-Dec-15 07:14N 37°39' E 024°58'419.5
2017-Dec-15 07:00N 37°36' E 025°03'611.4
2017-Dec-15 06:27N 37°32' E 025°09'614.3
2017-Dec-15 06:00N 37°29' E 025°16'3 5.9
2017-Dec-15 05:29N 37°28' E 025°20'0 0.0
2017-Dec-15 04:59N 37°28' E 025°20'0 0.0
2017-Dec-15 04:29N 37°28' E 025°20'0 0.0
2017-Dec-15 03:59N 37°28' E 025°20'0 0.0
2017-Dec-15 02:29N 37°28' E 025°20'0 0.0
2017-Dec-15 00:59N 37°28' E 025°20'0 0.0
2017-Dec-15 00:29N 37°28' E 025°20'0 0.0
2017-Dec-14 18:29N 37°28' E 025°20'0 0.0
2017-Dec-14 17:59N 37°28' E 025°20'0 0.0
2017-Dec-14 17:29N 37°28' E 025°20'0 0.0
2017-Dec-14 16:59N 37°28' E 025°20'0 0.0
2017-Dec-14 16:29N 37°28' E 025°20'0 0.0
2017-Dec-14 15:59N 37°28' E 025°20'0 0.0
2017-Dec-14 14:59N 37°28' E 025°20'0 0.0
2017-Dec-14 14:29N 37°28' E 025°20'0 0.0
2017-Dec-14 13:56N 37°28' E 025°20'0 0.0
2017-Dec-14 13:29N 37°28' E 025°20'0 0.0
2017-Dec-14 12:59N 37°28' E 025°20'0 0.0
2017-Dec-14 12:29N 37°28' E 025°20'0 0.0
2017-Dec-14 11:59N 37°28' E 025°20'0 0.0
2017-Dec-14 11:29N 37°28' E 025°20'0 0.0
2017-Dec-14 10:59N 37°28' E 025°20'0 0.0
2017-Dec-14 10:29N 37°28' E 025°20'0 0.0
2017-Dec-14 09:59N 37°28' E 025°20'0 0.0
2017-Dec-14 09:29N 37°28' E 025°20'0 0.0
2017-Dec-14 08:59N 37°28' E 025°20'0 0.0
2017-Dec-14 08:29N 37°28' E 025°20'0 0.0
2017-Dec-14 07:59N 37°28' E 025°20'0 0.0
2017-Dec-14 07:29N 37°28' E 025°20'0 0.0
2017-Dec-14 06:59N 37°28' E 025°20'0 0.0
2017-Dec-14 06:29N 37°28' E 025°20'0 0.0
2017-Dec-14 05:59N 37°28' E 025°20'0 0.0
2017-Dec-14 05:29N 37°28' E 025°20'0 0.0
2017-Dec-14 04:59N 37°28' E 025°20'0 0.0
2017-Dec-14 04:29N 37°28' E 025°20'0 0.0
2017-Dec-14 03:59N 37°28' E 025°20'0 0.0
2017-Dec-14 03:29N 37°28' E 025°20'0 0.0
2017-Dec-14 02:59N 37°28' E 025°20'0 0.0
2017-Dec-14 02:29N 37°28' E 025°20'0 0.0
2017-Dec-14 01:59N 37°28' E 025°20'0 0.0
2017-Dec-14 01:29N 37°28' E 025°20'0 0.0
2017-Dec-14 00:59N 37°28' E 025°20'0 0.0
2017-Dec-14 00:29N 37°28' E 025°20'0 0.0
2017-Dec-13 23:59N 37°28' E 025°20'0 0.0
2017-Dec-13 23:29N 37°28' E 025°20'0 0.0
2017-Dec-13 22:59N 37°28' E 025°20'0 0.0
2017-Dec-13 21:05N 37°28' E 025°20'0 0.0
2017-Dec-13 20:59N 37°28' E 025°20'0 0.0
2017-Dec-13 20:31N 37°28' E 025°20'611.9
2017-Dec-13 20:01N 37°30' E 025°13'3 6.9
2017-Dec-13 19:30N 37°32' E 025°09'1017.3
2017-Dec-13 18:57N 37°38' E 024°59'918.6
2017-Dec-13 18:28N 37°44' E 024°51'918.9
2017-Dec-13 18:01N 37°51' E 024°44'2 3.3
2017-Dec-13 17:30N 37°52' E 024°43'918.3
2017-Dec-13 17:00N 37°54' E 024°32'918.4
2017-Dec-13 16:30N 37°56' E 024°21'1518.4
2017-Dec-13 15:41N 38°01' E 024°02'1 7.3
2017-Dec-13 15:30N 38°01' E 024°01'0 0.0
2017-Dec-13 15:00N 38°01' E 024°01'0 0.0
2017-Dec-13 14:30N 38°01' E 024°01'0 0.0
2017-Dec-13 14:00N 38°01' E 024°01'0 0.0
2017-Dec-13 13:29N 38°01' E 024°01'0 0.0
2017-Dec-13 13:00N 38°01' E 024°01'0 0.0
2017-Dec-13 12:27N 38°01' E 024°01'0 0.0
2017-Dec-13 12:00N 38°01' E 024°01'0 0.0
2017-Dec-13 11:30N 38°01' E 024°01'0 0.0
2017-Dec-13 11:00N 38°01' E 024°01'0 0.0
2017-Dec-13 10:30N 38°01' E 024°01'713.0
2017-Dec-13 10:00N 37°59' E 024°09'919.0
2017-Dec-13 09:30N 37°55' E 024°20'919.0
2017-Dec-13 09:01N 37°53' E 024°31'918.8
2017-Dec-13 08:30N 37°52' E 024°43'3 4.5
2017-Dec-13 07:54N 37°50' E 024°45'718.7
2017-Dec-13 07:31N 37°44' E 024°51'918.6
2017-Dec-13 07:01N 37°38' E 024°59'918.8
2017-Dec-13 06:31N 37°32' E 025°09'3 5.8
2017-Dec-13 06:01N 37°30' E 025°12'713.5
2017-Dec-13 05:30N 37°28' E 025°20'0 0.0
2017-Dec-13 05:00N 37°28' E 025°20'0 0.0
2017-Dec-13 04:30N 37°28' E 025°20'0 0.0
2017-Dec-13 04:01N 37°28' E 025°20'0 0.0
2017-Dec-13 03:30N 37°28' E 025°20'0 0.0
2017-Dec-13 03:00N 37°28' E 025°20'0 0.0
2017-Dec-13 02:31N 37°28' E 025°20'0 0.0
2017-Dec-13 02:01N 37°28' E 025°20'0 0.0
2017-Dec-13 01:30N 37°28' E 025°20'0 0.0
2017-Dec-13 01:00N 37°28' E 025°20'0 0.0
2017-Dec-13 00:29N 37°28' E 025°20'0 0.0
2017-Dec-13 00:00N 37°28' E 025°20'0 0.0
2017-Dec-12 23:31N 37°28' E 025°20'0 0.0
2017-Dec-12 23:00N 37°28' E 025°20'0 0.0
2017-Dec-12 22:30N 37°28' E 025°20'0 0.0
2017-Dec-12 22:00N 37°28' E 025°20'0 0.0
2017-Dec-12 21:30N 37°28' E 025°20'0 0.0
2017-Dec-12 21:00N 37°28' E 025°20'0 0.0
2017-Dec-12 20:30N 37°28' E 025°20'4 7.7
2017-Dec-12 20:00N 37°29' E 025°15'510.9
2017-Dec-12 19:30N 37°32' E 025°09'713.9
2017-Dec-12 19:01N 37°36' E 025°02'1018.8
2017-Dec-12 18:27N 37°43' E 024°53'918.8
2017-Dec-12 18:00N 37°49' E 024°45'3 6.6
2017-Dec-12 17:30N 37°52' E 024°44'917.7
2017-Dec-12 17:01N 37°54' E 024°33'918.4
2017-Dec-12 16:31N 37°56' E 024°21'918.6
2017-Dec-12 16:01N 37°59' E 024°10'815.7
2017-Dec-12 15:30N 38°01' E 024°01'0 0.0
2017-Dec-12 15:00N 38°01' E 024°01'0 0.0
2017-Dec-12 14:30N 38°01' E 024°01'0 0.0
2017-Dec-12 14:00N 38°01' E 024°01'0 0.0
2017-Dec-12 13:30N 38°01' E 024°01'0 0.0
2017-Dec-12 13:00N 38°01' E 024°01'0 0.0
2017-Dec-12 12:30N 38°01' E 024°01'0 0.0
2017-Dec-12 12:00N 38°01' E 024°01'0 0.0
2017-Dec-12 11:30N 38°01' E 024°01'0 0.0
2017-Dec-12 11:00N 38°01' E 024°01'0 0.0
2017-Dec-12 10:30N 38°01' E 024°01'4 7.2
2017-Dec-12 10:00N 38°00' E 024°05'1119.2
2017-Dec-12 09:25N 37°56' E 024°18'819.1
2017-Dec-12 09:00N 37°54' E 024°28'1019.3
2017-Dec-12 08:31N 37°53' E 024°40'8 9.9
2017-Dec-12 07:40N 37°47' E 024°48'319.2
2017-Dec-12 07:30N 37°44' E 024°50'1019.2
2017-Dec-12 07:00N 37°38' E 024°59'918.9
2017-Dec-12 06:31N 37°32' E 025°08'4 8.4
2017-Dec-12 06:00N 37°30' E 025°13'611.3
2017-Dec-12 05:30N 37°28' E 025°20'0 0.0
2017-Dec-12 05:01N 37°28' E 025°20'0 0.0
2017-Dec-12 04:31N 37°28' E 025°20'0 0.0
2017-Dec-12 04:00N 37°28' E 025°20'0 0.0
2017-Dec-12 03:30N 37°28' E 025°20'0 0.0
2017-Dec-12 03:00N 37°28' E 025°20'0 0.0
2017-Dec-12 02:30N 37°28' E 025°20'0 0.0
2017-Dec-12 02:01N 37°28' E 025°20'0 0.0
2017-Dec-12 01:31N 37°28' E 025°20'0 0.0
2017-Dec-12 01:00N 37°28' E 025°20'0 0.0
2017-Dec-12 00:30N 37°28' E 025°20'0 0.0
2017-Dec-12 00:01N 37°28' E 025°20'0 0.0
2017-Dec-11 23:30N 37°28' E 025°20'0 0.0
2017-Dec-11 23:00N 37°28' E 025°20'0 0.0
2017-Dec-11 22:30N 37°28' E 025°20'0 0.0
2017-Dec-11 22:01N 37°28' E 025°20'0 0.0
2017-Dec-11 21:30N 37°28' E 025°20'0 0.0
2017-Dec-11 21:01N 37°28' E 025°20'0 0.6
2017-Dec-11 20:30N 37°28' E 025°19'917.5
2017-Dec-11 20:00N 37°32' E 025°09'1 1.1
2017-Dec-11 19:30N 37°32' E 025°09'917.6
2017-Dec-11 19:00N 37°37' E 024°59'918.1
2017-Dec-11 18:30N 37°44' E 024°52'918.3
2017-Dec-11 17:59N 37°51' E 024°44'2 3.0
2017-Dec-11 17:27N 37°52' E 024°43'818.3
2017-Dec-11 17:00N 37°54' E 024°33'1418.7
2017-Dec-11 16:16N 37°57' E 024°16'718.5
2017-Dec-11 15:54N 37°59' E 024°08'6 3.2
2017-Dec-11 13:57N 38°01' E 024°01'0 0.0
2017-Dec-11 13:05N 38°01' E 024°01'0 0.0
2017-Dec-11 12:49N 38°01' E 024°01'0 0.0
2017-Dec-11 11:13N 38°01' E 024°01'0 0.0
2017-Dec-11 10:47N 38°01' E 024°01'0 0.0
2017-Dec-11 10:22N 38°01' E 024°01'410.6
2017-Dec-11 10:01N 38°00' E 024°05'1019.1
2017-Dec-11 09:30N 37°57' E 024°17'918.6
2017-Dec-11 09:01N 37°54' E 024°28'1120.6
2017-Dec-11 08:28N 37°52' E 024°42'5 7.2
2017-Dec-11 07:44N 37°48' E 024°46'419.2
2017-Dec-11 07:30N 37°45' E 024°50'1019.0
2017-Dec-11 07:01N 37°38' E 024°58'1019.1
2017-Dec-11 06:30N 37°32' E 025°08'4 8.3
2017-Dec-11 06:00N 37°30' E 025°12'612.7
2017-Dec-11 05:30N 37°28' E 025°20'0 0.0
2017-Dec-11 05:00N 37°28' E 025°20'0 0.0
2017-Dec-11 04:30N 37°28' E 025°20'0 0.0
2017-Dec-11 04:00N 37°28' E 025°20'0 0.0
2017-Dec-11 03:30N 37°28' E 025°20'0 0.0
2017-Dec-11 03:00N 37°28' E 025°20'0 0.0
2017-Dec-11 02:30N 37°28' E 025°20'0 0.0
2017-Dec-11 02:00N 37°28' E 025°20'0 0.0
2017-Dec-11 01:30N 37°28' E 025°20'0 0.0
2017-Dec-11 01:00N 37°28' E 025°20'0 0.0
2017-Dec-11 00:30N 37°28' E 025°20'0 0.0
2017-Dec-11 00:00N 37°28' E 025°20'0 0.0
2017-Dec-10 23:30N 37°28' E 025°20'0 0.0
2017-Dec-10 23:00N 37°28' E 025°20'0 0.0
2017-Dec-10 22:30N 37°28' E 025°20'0 0.0
2017-Dec-10 22:00N 37°28' E 025°20'0 0.0
2017-Dec-10 21:30N 37°28' E 025°20'0 0.0
2017-Dec-10 21:00N 37°28' E 025°20'612.9
2017-Dec-10 20:31N 37°30' E 025°12'4 7.1
2017-Dec-10 20:01N 37°32' E 025°08'918.7
2017-Dec-10 19:31N 37°38' E 024°59'918.9
2017-Dec-10 19:01N 37°45' E 024°51'1017.6
2017-Dec-10 18:28N 37°53' E 024°44'3 7.3
2017-Dec-10 18:00N 37°52' E 024°40'918.6
2017-Dec-10 17:31N 37°54' E 024°28'1318.7
2017-Dec-10 16:50N 37°58' E 024°13'618.5
2017-Dec-10 16:30N 38°00' E 024°06'4 7.0
2017-Dec-10 15:54N 38°01' E 024°01'1 2.4
2017-Dec-10 15:31N 38°01' E 024°02'1019.0
2017-Dec-10 15:00N 37°58' E 024°13'1018.5
2017-Dec-10 14:29N 37°55' E 024°25'918.5
2017-Dec-10 14:00N 37°53' E 024°36'1310.9
2017-Dec-10 12:50N 37°45' E 024°49'1018.5
2017-Dec-10 12:18N 37°38' E 024°58'518.6
2017-Dec-10 12:01N 37°35' E 025°03'611.2
2017-Dec-10 11:30N 37°32' E 025°09'612.7
2017-Dec-10 11:01N 37°29' E 025°16'3 5.5
2017-Dec-10 10:28N 37°28' E 025°20'0 0.0
2017-Dec-10 09:58N 37°28' E 025°20'0 0.0
2017-Dec-10 09:28N 37°28' E 025°20'0 0.0
2017-Dec-10 08:58N 37°28' E 025°20'0 0.0
2017-Dec-10 08:28N 37°28' E 025°20'0 0.0
2017-Dec-10 07:58N 37°28' E 025°20'0 0.0
2017-Dec-10 07:28N 37°28' E 025°20'0 0.0
2017-Dec-10 06:58N 37°28' E 025°20'0 0.0
2017-Dec-10 06:25N 37°28' E 025°20'0 0.0
2017-Dec-10 05:58N 37°28' E 025°20'0 0.0
2017-Dec-10 05:28N 37°28' E 025°20'0 0.0
2017-Dec-10 04:58N 37°28' E 025°20'0 0.0
2017-Dec-10 04:28N 37°28' E 025°20'0 0.0
2017-Dec-10 03:58N 37°28' E 025°20'0 0.0
2017-Dec-10 03:28N 37°28' E 025°20'0 0.0
2017-Dec-10 02:58N 37°28' E 025°20'0 0.0
2017-Dec-10 02:28N 37°28' E 025°20'0 0.0
2017-Dec-10 01:58N 37°28' E 025°20'0 0.0
2017-Dec-10 01:28N 37°28' E 025°20'0 0.0
2017-Dec-10 00:58N 37°28' E 025°20'0 0.0
2017-Dec-10 00:28N 37°28' E 025°20'0 0.0
2017-Dec-09 23:58N 37°28' E 025°20'0 0.0
2017-Dec-09 23:28N 37°28' E 025°20'0 0.0
2017-Dec-09 22:58N 37°28' E 025°20'0 0.0
2017-Dec-09 22:28N 37°28' E 025°20'0 0.0
2017-Dec-09 21:58N 37°28' E 025°20'0 0.0
2017-Dec-09 21:28N 37°28' E 025°20'0 0.0
2017-Dec-09 21:01N 37°28' E 025°20'0 0.5
2017-Dec-09 20:30N 37°28' E 025°19'914.8
2017-Dec-09 19:55N 37°32' E 025°10'1 2.5
2017-Dec-09 19:31N 37°32' E 025°08'918.2
2017-Dec-09 19:01N 37°37' E 024°58'918.3
2017-Dec-09 18:31N 37°44' E 024°51'917.9
2017-Dec-09 18:00N 37°51' E 024°44'2 3.6
2017-Dec-09 17:30N 37°52' E 024°42'918.7
2017-Dec-09 17:00N 37°54' E 024°31'1019.1
2017-Dec-09 16:28N 37°57' E 024°18'918.8
2017-Dec-09 16:00N 37°60' E 024°07'6 4.8
2017-Dec-09 14:50N 38°01' E 024°01'514.7
2017-Dec-09 14:30N 38°00' E 024°07'1218.8
2017-Dec-09 13:53N 37°55' E 024°20'718.0
2017-Dec-09 13:30N 37°54' E 024°29'918.2
2017-Dec-09 13:00N 37°52' E 024°40'8 9.0
2017-Dec-09 12:07N 37°47' E 024°47'219.3
2017-Dec-09 12:00N 37°45' E 024°49'1018.9
2017-Dec-09 11:30N 37°38' E 024°58'918.8
2017-Dec-09 11:00N 37°33' E 025°07'3 6.6
2017-Dec-09 10:30N 37°31' E 025°10'813.8
2017-Dec-09 09:56N 37°28' E 025°20'0 0.0
2017-Dec-09 09:26N 37°28' E 025°20'0 0.0
2017-Dec-09 08:59N 37°28' E 025°20'0 0.0
2017-Dec-09 08:29N 37°28' E 025°20'0 0.0
2017-Dec-09 07:59N 37°28' E 025°20'0 0.0
2017-Dec-09 07:29N 37°28' E 025°20'0 0.0
2017-Dec-09 06:59N 37°28' E 025°20'0 0.0
2017-Dec-09 06:29N 37°28' E 025°20'0 0.0
2017-Dec-09 05:59N 37°28' E 025°20'0 0.0
2017-Dec-09 05:29N 37°28' E 025°20'0 0.0
2017-Dec-09 04:59N 37°28' E 025°20'0 0.0
2017-Dec-09 04:29N 37°28' E 025°20'0 0.0
2017-Dec-09 03:59N 37°28' E 025°20'0 0.0
2017-Dec-09 03:29N 37°28' E 025°20'0 0.0
2017-Dec-09 02:59N 37°28' E 025°20'0 0.0
2017-Dec-09 02:29N 37°28' E 025°20'0 0.0
2017-Dec-09 01:59N 37°28' E 025°20'0 0.0
2017-Dec-09 01:29N 37°28' E 025°20'0 0.0
2017-Dec-09 00:59N 37°28' E 025°20'0 0.0
2017-Dec-09 00:29N 37°28' E 025°20'0 0.0
2017-Dec-08 23:59N 37°28' E 025°20'0 0.0
2017-Dec-08 23:29N 37°28' E 025°20'0 0.0
2017-Dec-08 22:59N 37°28' E 025°20'0 0.0
2017-Dec-08 22:29N 37°28' E 025°20'0 0.0
2017-Dec-08 21:59N 37°28' E 025°20'0 0.0
2017-Dec-08 21:29N 37°28' E 025°20'0 0.0
2017-Dec-08 20:59N 37°28' E 025°20'0 0.1
2017-Dec-08 20:31N 37°28' E 025°20'714.0
2017-Dec-08 20:01N 37°31' E 025°12'3 5.1
2017-Dec-08 19:31N 37°32' E 025°09'917.3
2017-Dec-08 19:00N 37°37' E 024°60'918.2
2017-Dec-08 18:30N 37°43' E 024°52'1018.1
2017-Dec-08 17:59N 37°50' E 024°44'2 3.7
2017-Dec-08 17:28N 37°52' E 024°42'818.1
2017-Dec-08 17:01N 37°54' E 024°32'918.5
2017-Dec-08 16:31N 37°56' E 024°21'918.3
2017-Dec-08 16:01N 37°59' E 024°10'815.0
2017-Dec-08 15:30N 38°01' E 024°01'0 0.0
2017-Dec-08 14:45N 38°01' E 024°01'0 0.0
2017-Dec-08 14:24N 38°01' E 024°01'0 0.0
2017-Dec-08 14:00N 38°01' E 024°01'0 0.0
2017-Dec-08 13:29N 38°01' E 024°01'0 0.0
2017-Dec-08 13:00N 38°01' E 024°01'0 0.0
2017-Dec-08 12:29N 38°01' E 024°01'0 0.0
2017-Dec-08 12:00N 38°01' E 024°01'0 0.0
2017-Dec-08 11:30N 38°01' E 024°01'0 0.0
2017-Dec-08 11:00N 38°01' E 024°01'0 0.0
2017-Dec-08 10:30N 38°01' E 024°01'4 8.5
2017-Dec-08 10:00N 38°00' E 024°06'1019.3
2017-Dec-08 09:30N 37°56' E 024°17'1019.0
2017-Dec-08 09:00N 37°54' E 024°29'1019.3
2017-Dec-08 08:30N 37°52' E 024°41'2 4.7
2017-Dec-08 08:00N 37°53' E 024°44'918.3
2017-Dec-08 07:30N 37°45' E 024°50'1019.2
2017-Dec-08 07:00N 37°38' E 024°59'1019.1
2017-Dec-08 06:30N 37°32' E 025°08'3 6.6
2017-Dec-08 06:00N 37°30' E 025°12'713.8
2017-Dec-08 05:30N 37°28' E 025°20'0 0.0
2017-Dec-08 05:00N 37°28' E 025°20'0 0.0
2017-Dec-08 04:30N 37°28' E 025°20'0 0.0
2017-Dec-08 04:00N 37°28' E 025°20'0 0.0
2017-Dec-08 03:30N 37°28' E 025°20'0 0.0
2017-Dec-08 03:00N 37°28' E 025°20'0 0.0
2017-Dec-08 02:30N 37°28' E 025°20'0 0.0
2017-Dec-08 02:00N 37°28' E 025°20'0 0.0
2017-Dec-08 01:30N 37°28' E 025°20'0 0.0
2017-Dec-08 01:00N 37°28' E 025°20'0 0.0
2017-Dec-08 00:30N 37°28' E 025°20'0 0.0
2017-Dec-08 00:00N 37°28' E 025°20'0 0.0
2017-Dec-07 23:30N 37°28' E 025°20'0 0.0
2017-Dec-07 23:00N 37°28' E 025°20'0 0.0
2017-Dec-07 22:30N 37°28' E 025°20'0 0.0
2017-Dec-07 22:00N 37°28' E 025°20'0 0.0
2017-Dec-07 21:30N 37°28' E 025°20'0 0.0
2017-Dec-07 21:00N 37°28' E 025°20'0 0.0
2017-Dec-07 20:30N 37°28' E 025°20'5 9.7
2017-Dec-07 20:01N 37°30' E 025°14'4 8.9
2017-Dec-07 19:30N 37°32' E 025°09'714.9
2017-Dec-07 19:00N 37°36' E 025°01'1018.8
2017-Dec-07 18:30N 37°43' E 024°53'918.5
2017-Dec-07 18:00N 37°50' E 024°45'3 5.7
2017-Dec-07 17:29N 37°52' E 024°43'918.1
2017-Dec-07 17:00N 37°54' E 024°32'2018.4
2017-Dec-07 15:57N 37°59' E 024°08'6 5.8
2017-Dec-07 14:49N 38°01' E 024°01'0 0.0
2017-Dec-07 14:25N 38°01' E 024°01'0 0.0
2017-Dec-07 14:00N 38°01' E 024°01'0 0.0
2017-Dec-07 13:30N 38°01' E 024°01'0 0.0
2017-Dec-07 12:58N 38°01' E 024°01'0 0.0
2017-Dec-07 12:29N 38°01' E 024°01'0 0.0
2017-Dec-07 11:55N 38°01' E 024°01'0 0.0
2017-Dec-07 11:29N 38°01' E 024°01'0 0.0
2017-Dec-07 11:00N 38°01' E 024°01'0 0.0
2017-Dec-07 10:17N 38°01' E 024°01'413.0
2017-Dec-07 10:00N 38°00' E 024°05'1019.1
2017-Dec-07 09:30N 37°57' E 024°17'919.2
2017-Dec-07 09:00N 37°55' E 024°28'1019.2
2017-Dec-07 08:30N 37°53' E 024°40'7 9.1
2017-Dec-07 07:47N 37°48' E 024°47'1319.5
2017-Dec-07 07:05N 37°39' E 024°58'219.3
2017-Dec-07 07:00N 37°38' E 024°60'918.4
2017-Dec-07 06:30N 37°32' E 025°09'3 6.4
2017-Dec-07 06:00N 37°30' E 025°12'612.6
2017-Dec-07 05:30N 37°28' E 025°20'0 0.0
2017-Dec-07 05:00N 37°28' E 025°20'0 0.0
2017-Dec-07 04:30N 37°28' E 025°20'0 0.0
2017-Dec-07 04:00N 37°28' E 025°20'0 0.0
2017-Dec-07 03:30N 37°28' E 025°20'0 0.0
2017-Dec-07 03:00N 37°28' E 025°20'0 0.0
2017-Dec-07 02:30N 37°28' E 025°20'0 0.0
2017-Dec-07 02:00N 37°28' E 025°20'0 0.0
2017-Dec-07 01:30N 37°28' E 025°20'0 0.0
2017-Dec-07 01:00N 37°28' E 025°20'0 0.0
2017-Dec-07 00:30N 37°28' E 025°20'0 0.0
2017-Dec-07 00:00N 37°28' E 025°20'0 0.0
2017-Dec-06 23:30N 37°28' E 025°20'0 0.0
2017-Dec-06 23:00N 37°28' E 025°20'  
Track history (hours):
 
Tides and Currents Weather Stations Pressure Air Temp Water Temp Dewpoint Dewpoint Depression Visibility Wind Speed Wind Dir Waves Ship Positions

Theologos P .

Last reported at 2017-Dec-16 22:30 UTC. Time now 2017-Dec-16 22:37 UTC.
Position N 37°28' E 025°20'.

Length 118 m; draft 5 m.

Type: Passenger vessel. MMSI: 240521000.

Date/timePositionNaut miles runAvg speedWind from/ knotsBaromVisibWave heightAir tempDewpointWater temp
2017-Dec-16 22:30N 37°28' E 025°20'0 0.0
2017-Dec-16 22:00N 37°28' E 025°20'0 0.0
2017-Dec-16 21:30N 37°28' E 025°20'0 0.0
2017-Dec-16 21:00N 37°28' E 025°20'1 1.2
2017-Dec-16 20:30N 37°28' E 025°19'917.5
2017-Dec-16 20:01N 37°32' E 025°09'3 5.0
2017-Dec-16 19:30N 37°33' E 025°06'917.7
2017-Dec-16 19:00N 37°38' E 024°57'917.8
2017-Dec-16 18:30N 37°44' E 024°49'816.9
2017-Dec-16 18:00N 37°51' E 024°44'2 4.4
2017-Dec-16 17:30N 37°52' E 024°41'918.2
2017-Dec-16 17:00N 37°54' E 024°30'918.2
2017-Dec-16 16:30N 37°57' E 024°19'918.2
2017-Dec-16 16:00N 37°60' E 024°08'611.6
2017-Dec-16 15:30N 38°01' E 024°01'0 0.1
2017-Dec-16 15:00N 38°01' E 024°01'815.9
2017-Dec-16 14:29N 37°57' E 024°10'818.0
2017-Dec-16 14:00N 37°55' E 024°20'918.3
2017-Dec-16 13:30N 37°53' E 024°32'918.2
2017-Dec-16 13:00N 37°52' E 024°43'3 6.6
2017-Dec-16 12:30N 37°49' E 024°45'1419.0
2017-Dec-16 11:46N 37°39' E 024°58'518.9
2017-Dec-16 11:30N 37°36' E 025°02'713.9
2017-Dec-16 11:00N 37°32' E 025°10'2 3.1
2017-Dec-16 10:30N 37°31' E 025°10'816.0
2017-Dec-16 10:00N 37°28' E 025°20'0 0.1
2017-Dec-16 09:30N 37°28' E 025°20'0 0.0
2017-Dec-16 09:00N 37°28' E 025°20'0 0.0
2017-Dec-16 08:30N 37°28' E 025°20'0 0.0
2017-Dec-16 08:00N 37°28' E 025°20'0 0.0
2017-Dec-16 07:30N 37°28' E 025°20'0 0.0
2017-Dec-16 07:00N 37°28' E 025°20'0 0.0
2017-Dec-16 06:30N 37°28' E 025°20'0 0.0
2017-Dec-16 06:00N 37°28' E 025°20'0 0.0
2017-Dec-16 05:30N 37°28' E 025°20'0 0.0
2017-Dec-16 05:00N 37°28' E 025°20'0 0.0
2017-Dec-16 04:30N 37°28' E 025°20'0 0.0
2017-Dec-16 04:00N 37°28' E 025°20'0 0.0
2017-Dec-16 03:30N 37°28' E 025°20'0 0.0
2017-Dec-16 03:00N 37°28' E 025°20'0 0.0
2017-Dec-16 02:30N 37°28' E 025°20'0 0.0
2017-Dec-16 02:00N 37°28' E 025°20'0 0.0
2017-Dec-16 01:30N 37°28' E 025°20'0 0.0
2017-Dec-16 01:00N 37°28' E 025°20'0 0.0
2017-Dec-16 00:30N 37°28' E 025°20'0 0.0
2017-Dec-16 00:00N 37°28' E 025°20'0 0.0
2017-Dec-15 23:30N 37°28' E 025°20'0 0.0
2017-Dec-15 23:00N 37°28' E 025°20'0 0.0
2017-Dec-15 22:30N 37°28' E 025°20'0 0.0
2017-Dec-15 22:00N 37°28' E 025°20'0 0.0
2017-Dec-15 21:30N 37°28' E 025°20'0 0.0
2017-Dec-15 21:00N 37°28' E 025°20'0 0.5
2017-Dec-15 20:30N 37°28' E 025°19'917.8
2017-Dec-15 20:01N 37°32' E 025°09'2 3.4
2017-Dec-15 19:30N 37°33' E 025°07'918.0
2017-Dec-15 19:00N 37°38' E 024°58'917.9
2017-Dec-15 18:30N 37°44' E 024°51'1017.3
2017-Dec-15 17:57N 37°53' E 024°44'1 2.4
2017-Dec-15 17:30N 37°52' E 024°43'918.3
2017-Dec-15 17:00N 37°54' E 024°32'918.5
2017-Dec-15 16:31N 37°56' E 024°20'1118.6
2017-Dec-15 15:57N 37°59' E 024°08'612.9
2017-Dec-15 15:30N 38°01' E 024°01'0 0.0
2017-Dec-15 15:00N 38°01' E 024°01'0 0.0
2017-Dec-15 12:47N 38°01' E 024°01'0 0.0
2017-Dec-15 12:17N 38°01' E 024°01'0 0.0
2017-Dec-15 10:35N 38°01' E 024°01'0 1.3
2017-Dec-15 10:30N 38°01' E 024°01'917.6
2017-Dec-15 10:00N 37°59' E 024°11'918.7
2017-Dec-15 09:30N 37°56' E 024°22'1018.7
2017-Dec-15 08:59N 37°54' E 024°34'1010.1
2017-Dec-15 08:00N 37°49' E 024°46'1519.1
2017-Dec-15 07:14N 37°39' E 024°58'419.5
2017-Dec-15 07:00N 37°36' E 025°03'611.4
2017-Dec-15 06:27N 37°32' E 025°09'614.3
2017-Dec-15 06:00N 37°29' E 025°16'3 5.9
2017-Dec-15 05:29N 37°28' E 025°20'0 0.0
2017-Dec-15 04:59N 37°28' E 025°20'0 0.0
2017-Dec-15 04:29N 37°28' E 025°20'0 0.0
2017-Dec-15 03:59N 37°28' E 025°20'0 0.0
2017-Dec-15 02:29N 37°28' E 025°20'0 0.0
2017-Dec-15 00:59N 37°28' E 025°20'0 0.0
2017-Dec-15 00:29N 37°28' E 025°20'0 0.0
2017-Dec-14 18:29N 37°28' E 025°20'0 0.0
2017-Dec-14 17:59N 37°28' E 025°20'0 0.0
2017-Dec-14 17:29N 37°28' E 025°20'0 0.0
2017-Dec-14 16:59N 37°28' E 025°20'0 0.0
2017-Dec-14 16:29N 37°28' E 025°20'0 0.0
2017-Dec-14 15:59N 37°28' E 025°20'0 0.0
2017-Dec-14 14:59N 37°28' E 025°20'0 0.0
2017-Dec-14 14:29N 37°28' E 025°20'0 0.0
2017-Dec-14 13:56N 37°28' E 025°20'0 0.0
2017-Dec-14 13:29N 37°28' E 025°20'0 0.0
2017-Dec-14 12:59N 37°28' E 025°20'0 0.0
2017-Dec-14 12:29N 37°28' E 025°20'0 0.0
2017-Dec-14 11:59N 37°28' E 025°20'0 0.0
2017-Dec-14 11:29N 37°28' E 025°20'0 0.0
2017-Dec-14 10:59N 37°28' E 025°20'0 0.0
2017-Dec-14 10:29N 37°28' E 025°20'0 0.0
2017-Dec-14 09:59N 37°28' E 025°20'0 0.0
2017-Dec-14 09:29N 37°28' E 025°20'0 0.0
2017-Dec-14 08:59N 37°28' E 025°20'0 0.0
2017-Dec-14 08:29N 37°28' E 025°20'0 0.0
2017-Dec-14 07:59N 37°28' E 025°20'0 0.0
2017-Dec-14 07:29N 37°28' E 025°20'0 0.0
2017-Dec-14 06:59N 37°28' E 025°20'0 0.0
2017-Dec-14 06:29N 37°28' E 025°20'0 0.0
2017-Dec-14 05:59N 37°28' E 025°20'0 0.0
2017-Dec-14 05:29N 37°28' E 025°20'0 0.0
2017-Dec-14 04:59N 37°28' E 025°20'0 0.0
2017-Dec-14 04:29N 37°28' E 025°20'0 0.0
2017-Dec-14 03:59N 37°28' E 025°20'0 0.0
2017-Dec-14 03:29N 37°28' E 025°20'0 0.0
2017-Dec-14 02:59N 37°28' E 025°20'0 0.0
2017-Dec-14 02:29N 37°28' E 025°20'0 0.0
2017-Dec-14 01:59N 37°28' E 025°20'0 0.0
2017-Dec-14 01:29N 37°28' E 025°20'0 0.0
2017-Dec-14 00:59N 37°28' E 025°20'0 0.0
2017-Dec-14 00:29N 37°28' E 025°20'0 0.0
2017-Dec-13 23:59N 37°28' E 025°20'0 0.0
2017-Dec-13 23:29N 37°28' E 025°20'0 0.0
2017-Dec-13 22:59N 37°28' E 025°20'0 0.0
2017-Dec-13 21:05N 37°28' E 025°20'0 0.0
2017-Dec-13 20:59N 37°28' E 025°20'0 0.0
2017-Dec-13 20:31N 37°28' E 025°20'611.9
2017-Dec-13 20:01N 37°30' E 025°13'3 6.9
2017-Dec-13 19:30N 37°32' E 025°09'1017.3
2017-Dec-13 18:57N 37°38' E 024°59'918.6
2017-Dec-13 18:28N 37°44' E 024°51'918.9
2017-Dec-13 18:01N 37°51' E 024°44'2 3.3
2017-Dec-13 17:30N 37°52' E 024°43'918.3
2017-Dec-13 17:00N 37°54' E 024°32'918.4
2017-Dec-13 16:30N 37°56' E 024°21'1518.4
2017-Dec-13 15:41N 38°01' E 024°02'1 7.3
2017-Dec-13 15:30N 38°01' E 024°01'0 0.0
2017-Dec-13 15:00N 38°01' E 024°01'0 0.0
2017-Dec-13 14:30N 38°01' E 024°01'0 0.0
2017-Dec-13 14:00N 38°01' E 024°01'0 0.0
2017-Dec-13 13:29N 38°01' E 024°01'0 0.0
2017-Dec-13 13:00N 38°01' E 024°01'0 0.0
2017-Dec-13 12:27N 38°01' E 024°01'0 0.0
2017-Dec-13 12:00N 38°01' E 024°01'0 0.0
2017-Dec-13 11:30N 38°01' E 024°01'0 0.0
2017-Dec-13 11:00N 38°01' E 024°01'0 0.0
2017-Dec-13 10:30N 38°01' E 024°01'713.0
2017-Dec-13 10:00N 37°59' E 024°09'919.0
2017-Dec-13 09:30N 37°55' E 024°20'919.0
2017-Dec-13 09:01N 37°53' E 024°31'918.8
2017-Dec-13 08:30N 37°52' E 024°43'3 4.5
2017-Dec-13 07:54N 37°50' E 024°45'718.7
2017-Dec-13 07:31N 37°44' E 024°51'918.6
2017-Dec-13 07:01N 37°38' E 024°59'918.8
2017-Dec-13 06:31N 37°32' E 025°09'3 5.8
2017-Dec-13 06:01N 37°30' E 025°12'713.5
2017-Dec-13 05:30N 37°28' E 025°20'0 0.0
2017-Dec-13 05:00N 37°28' E 025°20'0 0.0
2017-Dec-13 04:30N 37°28' E 025°20'0 0.0
2017-Dec-13 04:01N 37°28' E 025°20'0 0.0
2017-Dec-13 03:30N 37°28' E 025°20'0 0.0
2017-Dec-13 03:00N 37°28' E 025°20'0 0.0
2017-Dec-13 02:31N 37°28' E 025°20'0 0.0
2017-Dec-13 02:01N 37°28' E 025°20'0 0.0
2017-Dec-13 01:30N 37°28' E 025°20'0 0.0
2017-Dec-13 01:00N 37°28' E 025°20'0 0.0
2017-Dec-13 00:29N 37°28' E 025°20'0 0.0
2017-Dec-13 00:00N 37°28' E 025°20'0 0.0
2017-Dec-12 23:31N 37°28' E 025°20'0 0.0
2017-Dec-12 23:00N 37°28' E 025°20'0 0.0
2017-Dec-12 22:30N 37°28' E 025°20'0 0.0
2017-Dec-12 22:00N 37°28' E 025°20'0 0.0
2017-Dec-12 21:30N 37°28' E 025°20'0 0.0
2017-Dec-12 21:00N 37°28' E 025°20'0 0.0
2017-Dec-12 20:30N 37°28' E 025°20'4 7.7
2017-Dec-12 20:00N 37°29' E 025°15'510.9
2017-Dec-12 19:30N 37°32' E 025°09'713.9
2017-Dec-12 19:01N 37°36' E 025°02'1018.8
2017-Dec-12 18:27N 37°43' E 024°53'918.8
2017-Dec-12 18:00N 37°49' E 024°45'3 6.6
2017-Dec-12 17:30N 37°52' E 024°44'917.7
2017-Dec-12 17:01N 37°54' E 024°33'918.4
2017-Dec-12 16:31N 37°56' E 024°21'918.6
2017-Dec-12 16:01N 37°59' E 024°10'815.7
2017-Dec-12 15:30N 38°01' E 024°01'0 0.0
2017-Dec-12 15:00N 38°01' E 024°01'0 0.0
2017-Dec-12 14:30N 38°01' E 024°01'0 0.0
2017-Dec-12 14:00N 38°01' E 024°01'0 0.0
2017-Dec-12 13:30N 38°01' E 024°01'0 0.0
2017-Dec-12 13:00N 38°01' E 024°01'0 0.0
2017-Dec-12 12:30N 38°01' E 024°01'0 0.0
2017-Dec-12 12:00N 38°01' E 024°01'0 0.0
2017-Dec-12 11:30N 38°01' E 024°01'0 0.0
2017-Dec-12 11:00N 38°01' E 024°01'0 0.0
2017-Dec-12 10:30N 38°01' E 024°01'4 7.2
2017-Dec-12 10:00N 38°00' E 024°05'1119.2
2017-Dec-12 09:25N 37°56' E 024°18'819.1
2017-Dec-12 09:00N 37°54' E 024°28'1019.3
2017-Dec-12 08:31N 37°53' E 024°40'8 9.9
2017-Dec-12 07:40N 37°47' E 024°48'319.2
2017-Dec-12 07:30N 37°44' E 024°50'1019.2
2017-Dec-12 07:00N 37°38' E 024°59'918.9
2017-Dec-12 06:31N 37°32' E 025°08'4 8.4
2017-Dec-12 06:00N 37°30' E 025°13'611.3
2017-Dec-12 05:30N 37°28' E 025°20'0 0.0
2017-Dec-12 05:01N 37°28' E 025°20'0 0.0
2017-Dec-12 04:31N 37°28' E 025°20'0 0.0
2017-Dec-12 04:00N 37°28' E 025°20'0 0.0
2017-Dec-12 03:30N 37°28' E 025°20'0 0.0
2017-Dec-12 03:00N 37°28' E 025°20'0 0.0
2017-Dec-12 02:30N 37°28' E 025°20'0 0.0
2017-Dec-12 02:01N 37°28' E 025°20'0 0.0
2017-Dec-12 01:31N 37°28' E 025°20'0 0.0
2017-Dec-12 01:00N 37°28' E 025°20'0 0.0
2017-Dec-12 00:30N 37°28' E 025°20'0 0.0
2017-Dec-12 00:01N 37°28' E 025°20'0 0.0
2017-Dec-11 23:30N 37°28' E 025°20'0 0.0
2017-Dec-11 23:00N 37°28' E 025°20'0 0.0
2017-Dec-11 22:30N 37°28' E 025°20'0 0.0
2017-Dec-11 22:01N 37°28' E 025°20'0 0.0
2017-Dec-11 21:30N 37°28' E 025°20'0 0.0
2017-Dec-11 21:01N 37°28' E 025°20'0 0.6
2017-Dec-11 20:30N 37°28' E 025°19'917.5
2017-Dec-11 20:00N 37°32' E 025°09'1 1.1
2017-Dec-11 19:30N 37°32' E 025°09'917.6
2017-Dec-11 19:00N 37°37' E 024°59'918.1
2017-Dec-11 18:30N 37°44' E 024°52'918.3
2017-Dec-11 17:59N 37°51' E 024°44'2 3.0
2017-Dec-11 17:27N 37°52' E 024°43'818.3
2017-Dec-11 17:00N 37°54' E 024°33'1418.7
2017-Dec-11 16:16N 37°57' E 024°16'718.5
2017-Dec-11 15:54N 37°59' E 024°08'6 3.2
2017-Dec-11 13:57N 38°01' E 024°01'0 0.0
2017-Dec-11 13:05N 38°01' E 024°01'0 0.0
2017-Dec-11 12:49N 38°01' E 024°01'0 0.0
2017-Dec-11 11:13N 38°01' E 024°01'0 0.0
2017-Dec-11 10:47N 38°01' E 024°01'0 0.0
2017-Dec-11 10:22N 38°01' E 024°01'410.6
2017-Dec-11 10:01N 38°00' E 024°05'1019.1
2017-Dec-11 09:30N 37°57' E 024°17'918.6
2017-Dec-11 09:01N 37°54' E 024°28'1120.6
2017-Dec-11 08:28N 37°52' E 024°42'5 7.2
2017-Dec-11 07:44N 37°48' E 024°46'419.2
2017-Dec-11 07:30N 37°45' E 024°50'1019.0
2017-Dec-11 07:01N 37°38' E 024°58'1019.1
2017-Dec-11 06:30N 37°32' E 025°08'4 8.3
2017-Dec-11 06:00N 37°30' E 025°12'612.7
2017-Dec-11 05:30N 37°28' E 025°20'0 0.0
2017-Dec-11 05:00N 37°28' E 025°20'0 0.0
2017-Dec-11 04:30N 37°28' E 025°20'0 0.0
2017-Dec-11 04:00N 37°28' E 025°20'0 0.0
2017-Dec-11 03:30N 37°28' E 025°20'0 0.0
2017-Dec-11 03:00N 37°28' E 025°20'0 0.0
2017-Dec-11 02:30N 37°28' E 025°20'0 0.0
2017-Dec-11 02:00N 37°28' E 025°20'0 0.0
2017-Dec-11 01:30N 37°28' E 025°20'0 0.0
2017-Dec-11 01:00N 37°28' E 025°20'0 0.0
2017-Dec-11 00:30N 37°28' E 025°20'0 0.0
2017-Dec-11 00:00N 37°28' E 025°20'0 0.0
2017-Dec-10 23:30N 37°28' E 025°20'0 0.0
2017-Dec-10 23:00N 37°28' E 025°20'0 0.0
2017-Dec-10 22:30N 37°28' E 025°20'0 0.0
2017-Dec-10 22:00N 37°28' E 025°20'0 0.0
2017-Dec-10 21:30N 37°28' E 025°20'0 0.0
2017-Dec-10 21:00N 37°28' E 025°20'612.9
2017-Dec-10 20:31N 37°30' E 025°12'4 7.1
2017-Dec-10 20:01N 37°32' E 025°08'918.7
2017-Dec-10 19:31N 37°38' E 024°59'918.9
2017-Dec-10 19:01N 37°45' E 024°51'1017.6
2017-Dec-10 18:28N 37°53' E 024°44'3 7.3
2017-Dec-10 18:00N 37°52' E 024°40'918.6
2017-Dec-10 17:31N 37°54' E 024°28'1318.7
2017-Dec-10 16:50N 37°58' E 024°13'618.5
2017-Dec-10 16:30N 38°00' E 024°06'4 7.0
2017-Dec-10 15:54N 38°01' E 024°01'1 2.4
2017-Dec-10 15:31N 38°01' E 024°02'1019.0
2017-Dec-10 15:00N 37°58' E 024°13'1018.5
2017-Dec-10 14:29N 37°55' E 024°25'918.5
2017-Dec-10 14:00N 37°53' E 024°36'1310.9
2017-Dec-10 12:50N 37°45' E 024°49'1018.5
2017-Dec-10 12:18N 37°38' E 024°58'518.6
2017-Dec-10 12:01N 37°35' E 025°03'611.2
2017-Dec-10 11:30N 37°32' E 025°09'612.7
2017-Dec-10 11:01N 37°29' E 025°16'3 5.5
2017-Dec-10 10:28N 37°28' E 025°20'0 0.0
2017-Dec-10 09:58N 37°28' E 025°20'0 0.0
2017-Dec-10 09:28N 37°28' E 025°20'0 0.0
2017-Dec-10 08:58N 37°28' E 025°20'0 0.0
2017-Dec-10 08:28N 37°28' E 025°20'0 0.0
2017-Dec-10 07:58N 37°28' E 025°20'0 0.0
2017-Dec-10 07:28N 37°28' E 025°20'0 0.0
2017-Dec-10 06:58N 37°28' E 025°20'0 0.0
2017-Dec-10 06:25N 37°28' E 025°20'0 0.0
2017-Dec-10 05:58N 37°28' E 025°20'0 0.0
2017-Dec-10 05:28N 37°28' E 025°20'0 0.0
2017-Dec-10 04:58N 37°28' E 025°20'0 0.0
2017-Dec-10 04:28N 37°28' E 025°20'0 0.0
2017-Dec-10 03:58N 37°28' E 025°20'0 0.0
2017-Dec-10 03:28N 37°28' E 025°20'0 0.0
2017-Dec-10 02:58N 37°28' E 025°20'0 0.0
2017-Dec-10 02:28N 37°28' E 025°20'0 0.0
2017-Dec-10 01:58N 37°28' E 025°20'0 0.0
2017-Dec-10 01:28N 37°28' E 025°20'0 0.0
2017-Dec-10 00:58N 37°28' E 025°20'0 0.0
2017-Dec-10 00:28N 37°28' E 025°20'0 0.0
2017-Dec-09 23:58N 37°28' E 025°20'0 0.0
2017-Dec-09 23:28N 37°28' E 025°20'0 0.0
2017-Dec-09 22:58N 37°28' E 025°20'0 0.0
2017-Dec-09 22:28N 37°28' E 025°20'0 0.0
2017-Dec-09 21:58N 37°28' E 025°20'0 0.0
2017-Dec-09 21:28N 37°28' E 025°20'0 0.0
2017-Dec-09 21:01N 37°28' E 025°20'0 0.5
2017-Dec-09 20:30N 37°28' E 025°19'914.8
2017-Dec-09 19:55N 37°32' E 025°10'1 2.5
2017-Dec-09 19:31N 37°32' E 025°08'918.2
2017-Dec-09 19:01N 37°37' E 024°58'918.3
2017-Dec-09 18:31N 37°44' E 024°51'917.9
2017-Dec-09 18:00N 37°51' E 024°44'2 3.6
2017-Dec-09 17:30N 37°52' E 024°42'918.7
2017-Dec-09 17:00N 37°54' E 024°31'1019.1
2017-Dec-09 16:28N 37°57' E 024°18'918.8
2017-Dec-09 16:00N 37°60' E 024°07'6 4.8
2017-Dec-09 14:50N 38°01' E 024°01'514.7
2017-Dec-09 14:30N 38°00' E 024°07'1218.8
2017-Dec-09 13:53N 37°55' E 024°20'718.0
2017-Dec-09 13:30N 37°54' E 024°29'918.2
2017-Dec-09 13:00N 37°52' E 024°40'8 9.0
2017-Dec-09 12:07N 37°47' E 024°47'219.3
2017-Dec-09 12:00N 37°45' E 024°49'1018.9
2017-Dec-09 11:30N 37°38' E 024°58'918.8
2017-Dec-09 11:00N 37°33' E 025°07'3 6.6
2017-Dec-09 10:30N 37°31' E 025°10'813.8
2017-Dec-09 09:56N 37°28' E 025°20'0 0.0
2017-Dec-09 09:26N 37°28' E 025°20'0 0.0
2017-Dec-09 08:59N 37°28' E 025°20'0 0.0
2017-Dec-09 08:29N 37°28' E 025°20'0 0.0
2017-Dec-09 07:59N 37°28' E 025°20'0 0.0
2017-Dec-09 07:29N 37°28' E 025°20'0 0.0
2017-Dec-09 06:59N 37°28' E 025°20'0 0.0
2017-Dec-09 06:29N 37°28' E 025°20'0 0.0
2017-Dec-09 05:59N 37°28' E 025°20'0 0.0
2017-Dec-09 05:29N 37°28' E 025°20'0 0.0
2017-Dec-09 04:59N 37°28' E 025°20'0 0.0
2017-Dec-09 04:29N 37°28' E 025°20'0 0.0
2017-Dec-09 03:59N 37°28' E 025°20'0 0.0
2017-Dec-09 03:29N 37°28' E 025°20'0 0.0
2017-Dec-09 02:59N 37°28' E 025°20'0 0.0
2017-Dec-09 02:29N 37°28' E 025°20'0 0.0
2017-Dec-09 01:59N 37°28' E 025°20'0 0.0
2017-Dec-09 01:29N 37°28' E 025°20'0 0.0
2017-Dec-09 00:59N 37°28' E 025°20'0 0.0
2017-Dec-09 00:29N 37°28' E 025°20'0 0.0
2017-Dec-08 23:59N 37°28' E 025°20'0 0.0
2017-Dec-08 23:29N 37°28' E 025°20'0 0.0
2017-Dec-08 22:59N 37°28' E 025°20'0 0.0
2017-Dec-08 22:29N 37°28' E 025°20'0 0.0
2017-Dec-08 21:59N 37°28' E 025°20'0 0.0
2017-Dec-08 21:29N 37°28' E 025°20'0 0.0
2017-Dec-08 20:59N 37°28' E 025°20'0 0.1
2017-Dec-08 20:31N 37°28' E 025°20'714.0
2017-Dec-08 20:01N 37°31' E 025°12'3 5.1
2017-Dec-08 19:31N 37°32' E 025°09'917.3
2017-Dec-08 19:00N 37°37' E 024°60'918.2
2017-Dec-08 18:30N 37°43' E 024°52'1018.1
2017-Dec-08 17:59N 37°50' E 024°44'2 3.7
2017-Dec-08 17:28N 37°52' E 024°42'818.1
2017-Dec-08 17:01N 37°54' E 024°32'918.5
2017-Dec-08 16:31N 37°56' E 024°21'918.3
2017-Dec-08 16:01N 37°59' E 024°10'815.0
2017-Dec-08 15:30N 38°01' E 024°01'0 0.0
2017-Dec-08 14:45N 38°01' E 024°01'0 0.0
2017-Dec-08 14:24N 38°01' E 024°01'0 0.0
2017-Dec-08 14:00N 38°01' E 024°01'0 0.0
2017-Dec-08 13:29N 38°01' E 024°01'0 0.0
2017-Dec-08 13:00N 38°01' E 024°01'0 0.0
2017-Dec-08 12:29N 38°01' E 024°01'0 0.0
2017-Dec-08 12:00N 38°01' E 024°01'0 0.0
2017-Dec-08 11:30N 38°01' E 024°01'0 0.0
2017-Dec-08 11:00N 38°01' E 024°01'0 0.0
2017-Dec-08 10:30N 38°01' E 024°01'4 8.5
2017-Dec-08 10:00N 38°00' E 024°06'1019.3
2017-Dec-08 09:30N 37°56' E 024°17'1019.0
2017-Dec-08 09:00N 37°54' E 024°29'1019.3
2017-Dec-08 08:30N 37°52' E 024°41'2 4.7
2017-Dec-08 08:00N 37°53' E 024°44'918.3
2017-Dec-08 07:30N 37°45' E 024°50'1019.2
2017-Dec-08 07:00N 37°38' E 024°59'1019.1
2017-Dec-08 06:30N 37°32' E 025°08'3 6.6
2017-Dec-08 06:00N 37°30' E 025°12'713.8
2017-Dec-08 05:30N 37°28' E 025°20'0 0.0
2017-Dec-08 05:00N 37°28' E 025°20'0 0.0
2017-Dec-08 04:30N 37°28' E 025°20'0 0.0
2017-Dec-08 04:00N 37°28' E 025°20'0 0.0
2017-Dec-08 03:30N 37°28' E 025°20'0 0.0
2017-Dec-08 03:00N 37°28' E 025°20'0 0.0
2017-Dec-08 02:30N 37°28' E 025°20'0 0.0
2017-Dec-08 02:00N 37°28' E 025°20'0 0.0
2017-Dec-08 01:30N 37°28' E 025°20'0 0.0
2017-Dec-08 01:00N 37°28' E 025°20'0 0.0
2017-Dec-08 00:30N 37°28' E 025°20'0 0.0
2017-Dec-08 00:00N 37°28' E 025°20'0 0.0
2017-Dec-07 23:30N 37°28' E 025°20'0 0.0
2017-Dec-07 23:00N 37°28' E 025°20'0 0.0
2017-Dec-07 22:30N 37°28' E 025°20'0 0.0
2017-Dec-07 22:00N 37°28' E 025°20'0 0.0
2017-Dec-07 21:30N 37°28' E 025°20'0 0.0
2017-Dec-07 21:00N 37°28' E 025°20'0 0.0
2017-Dec-07 20:30N 37°28' E 025°20'5 9.7
2017-Dec-07 20:01N 37°30' E 025°14'4 8.9
2017-Dec-07 19:30N 37°32' E 025°09'714.9
2017-Dec-07 19:00N 37°36' E 025°01'1018.8
2017-Dec-07 18:30N 37°43' E 024°53'918.5
2017-Dec-07 18:00N 37°50' E 024°45'3 5.7
2017-Dec-07 17:29N 37°52' E 024°43'918.1
2017-Dec-07 17:00N 37°54' E 024°32'2018.4
2017-Dec-07 15:57N 37°59' E 024°08'6 5.8
2017-Dec-07 14:49N 38°01' E 024°01'0 0.0
2017-Dec-07 14:25N 38°01' E 024°01'0 0.0
2017-Dec-07 14:00N 38°01' E 024°01'0 0.0
2017-Dec-07 13:30N 38°01' E 024°01'0 0.0
2017-Dec-07 12:58N 38°01' E 024°01'0 0.0
2017-Dec-07 12:29N 38°01' E 024°01'0 0.0
2017-Dec-07 11:55N 38°01' E 024°01'0 0.0
2017-Dec-07 11:29N 38°01' E 024°01'0 0.0
2017-Dec-07 11:00N 38°01' E 024°01'0 0.0
2017-Dec-07 10:17N 38°01' E 024°01'413.0
2017-Dec-07 10:00N 38°00' E 024°05'1019.1
2017-Dec-07 09:30N 37°57' E 024°17'919.2
2017-Dec-07 09:00N 37°55' E 024°28'1019.2
2017-Dec-07 08:30N 37°53' E 024°40'7 9.1
2017-Dec-07 07:47N 37°48' E 024°47'1319.5
2017-Dec-07 07:05N 37°39' E 024°58'219.3
2017-Dec-07 07:00N 37°38' E 024°60'918.4
2017-Dec-07 06:30N 37°32' E 025°09'3 6.4
2017-Dec-07 06:00N 37°30' E 025°12'612.6
2017-Dec-07 05:30N 37°28' E 025°20'0 0.0
2017-Dec-07 05:00N 37°28' E 025°20'0 0.0
2017-Dec-07 04:30N 37°28' E 025°20'0 0.0
2017-Dec-07 04:00N 37°28' E 025°20'0 0.0
2017-Dec-07 03:30N 37°28' E 025°20'0 0.0
2017-Dec-07 03:00N 37°28' E 025°20'0 0.0
2017-Dec-07 02:30N 37°28' E 025°20'0 0.0
2017-Dec-07 02:00N 37°28' E 025°20'0 0.0
2017-Dec-07 01:30N 37°28' E 025°20'0 0.0
2017-Dec-07 01:00N 37°28' E 025°20'0 0.0
2017-Dec-07 00:30N 37°28' E 025°20'0 0.0
2017-Dec-07 00:00N 37°28' E 025°20'0 0.0
2017-Dec-06 23:30N 37°28' E 025°20'0 0.0
2017-Dec-06 23:00N 37°28' E 025°20'  

Dump ship's entire track history